sensor_id;sensor_type;location;lat;lon;timestamp;P1;durP1;ratioP1;P2;durP2;ratioP2
54683;SDS011;40582;53.100;6.686;2022-10-18T00:00:25;86.03;;;40.67;;
54683;SDS011;40582;53.100;6.686;2022-10-18T00:02:51;106.85;;;42.97;;
54683;SDS011;40582;53.100;6.686;2022-10-18T00:05:17;87.10;;;41.08;;
54683;SDS011;40582;53.100;6.686;2022-10-18T00:07:42;110.63;;;44.05;;
54683;SDS011;40582;53.100;6.686;2022-10-18T00:10:08;103.85;;;44.28;;
54683;SDS011;40582;53.100;6.686;2022-10-18T00:12:34;86.18;;;40.83;;
54683;SDS011;40582;53.100;6.686;2022-10-18T00:15:01;90.90;;;41.63;;
54683;SDS011;40582;53.100;6.686;2022-10-18T00:17:28;78.57;;;38.55;;
54683;SDS011;40582;53.100;6.686;2022-10-18T00:19:53;91.22;;;41.15;;
54683;SDS011;40582;53.100;6.686;2022-10-18T00:22:19;98.90;;;42.17;;
54683;SDS011;40582;53.100;6.686;2022-10-18T00:24:45;103.95;;;44.42;;
54683;SDS011;40582;53.100;6.686;2022-10-18T00:27:10;73.50;;;36.47;;
54683;SDS011;40582;53.100;6.686;2022-10-18T00:29:36;75.15;;;37.42;;
54683;SDS011;40582;53.100;6.686;2022-10-18T00:32:02;91.32;;;39.22;;
54683;SDS011;40582;53.100;6.686;2022-10-18T00:34:28;70.63;;;35.63;;
54683;SDS011;40582;53.100;6.686;2022-10-18T00:36:53;72.93;;;36.92;;
54683;SDS011;40582;53.100;6.686;2022-10-18T00:39:19;77.22;;;36.70;;
54683;SDS011;40582;53.100;6.686;2022-10-18T00:41:46;76.15;;;35.30;;
54683;SDS011;40582;53.100;6.686;2022-10-18T00:46:42;89.80;;;37.55;;
54683;SDS011;40582;53.100;6.686;2022-10-18T00:52:02;92.90;;;40.53;;
54683;SDS011;40582;53.100;6.686;2022-10-18T00:54:36;100.85;;;40.78;;
54683;SDS011;40582;53.100;6.686;2022-10-18T00:57:05;82.13;;;38.15;;
54683;SDS011;40582;53.100;6.686;2022-10-18T00:59:32;90.60;;;39.00;;
54683;SDS011;40582;53.100;6.686;2022-10-18T01:01:58;98.72;;;37.90;;
54683;SDS011;40582;53.100;6.686;2022-10-18T01:04:25;82.07;;;37.13;;
54683;SDS011;40582;53.100;6.686;2022-10-18T01:12:25;70.50;;;32.88;;
54683;SDS011;40582;53.100;6.686;2022-10-18T01:31:44;62.60;;;29.48;;
54683;SDS011;40582;53.100;6.686;2022-10-18T01:34:17;70.05;;;32.35;;
54683;SDS011;40582;53.100;6.686;2022-10-18T01:36:45;104.15;;;40.22;;
54683;SDS011;40582;53.100;6.686;2022-10-18T01:39:15;101.40;;;39.60;;
54683;SDS011;40582;53.100;6.686;2022-10-18T01:41:45;90.95;;;34.50;;
54683;SDS011;40582;53.100;6.686;2022-10-18T01:44:18;63.78;;;32.08;;
54683;SDS011;40582;53.100;6.686;2022-10-18T01:46:47;80.15;;;34.42;;
54683;SDS011;40582;53.100;6.686;2022-10-18T01:49:15;78.72;;;35.25;;
54683;SDS011;40582;53.100;6.686;2022-10-18T01:51:40;76.43;;;35.40;;
54683;SDS011;40582;53.100;6.686;2022-10-18T01:54:06;68.18;;;33.45;;
54683;SDS011;40582;53.100;6.686;2022-10-18T01:56:40;75.20;;;34.78;;
54683;SDS011;40582;53.100;6.686;2022-10-18T01:59:21;61.00;;;32.45;;
54683;SDS011;40582;53.100;6.686;2022-10-18T02:04:40;94.53;;;40.08;;
54683;SDS011;40582;53.100;6.686;2022-10-18T02:07:28;60.65;;;33.33;;
54683;SDS011;40582;53.100;6.686;2022-10-18T02:10:07;61.70;;;33.50;;
54683;SDS011;40582;53.100;6.686;2022-10-18T02:12:43;86.10;;;38.17;;
54683;SDS011;40582;53.100;6.686;2022-10-18T02:15:11;79.47;;;34.58;;
54683;SDS011;40582;53.100;6.686;2022-10-18T02:17:40;90.13;;;38.45;;
54683;SDS011;40582;53.100;6.686;2022-10-18T02:20:09;80.22;;;37.35;;
54683;SDS011;40582;53.100;6.686;2022-10-18T02:22:37;76.10;;;35.05;;
54683;SDS011;40582;53.100;6.686;2022-10-18T02:25:07;130.95;;;43.03;;
54683;SDS011;40582;53.100;6.686;2022-10-18T02:27:37;72.97;;;35.75;;
54683;SDS011;40582;53.100;6.686;2022-10-18T02:30:04;74.07;;;34.53;;
54683;SDS011;40582;53.100;6.686;2022-10-18T02:32:32;110.00;;;40.47;;
54683;SDS011;40582;53.100;6.686;2022-10-18T02:38:10;62.20;;;31.73;;
54683;SDS011;40582;53.100;6.686;2022-10-18T02:40:38;60.80;;;30.77;;
54683;SDS011;40582;53.100;6.686;2022-10-18T02:43:04;70.43;;;33.53;;
54683;SDS011;40582;53.100;6.686;2022-10-18T02:45:30;76.95;;;34.78;;
54683;SDS011;40582;53.100;6.686;2022-10-18T02:47:56;60.00;;;30.92;;
54683;SDS011;40582;53.100;6.686;2022-10-18T02:50:22;74.90;;;33.80;;
54683;SDS011;40582;53.100;6.686;2022-10-18T02:52:48;93.55;;;38.63;;
54683;SDS011;40582;53.100;6.686;2022-10-18T02:55:14;97.20;;;37.92;;
54683;SDS011;40582;53.100;6.686;2022-10-18T02:57:40;78.97;;;35.70;;
54683;SDS011;40582;53.100;6.686;2022-10-18T03:00:06;67.07;;;34.17;;
54683;SDS011;40582;53.100;6.686;2022-10-18T03:02:32;159.13;;;45.35;;
54683;SDS011;40582;53.100;6.686;2022-10-18T03:04:58;72.45;;;35.97;;
54683;SDS011;40582;53.100;6.686;2022-10-18T03:07:23;123.07;;;44.70;;
54683;SDS011;40582;53.100;6.686;2022-10-18T03:09:49;71.18;;;34.25;;
54683;SDS011;40582;53.100;6.686;2022-10-18T03:12:15;73.65;;;35.22;;
54683;SDS011;40582;53.100;6.686;2022-10-18T03:14:40;79.75;;;37.22;;
54683;SDS011;40582;53.100;6.686;2022-10-18T03:17:06;76.40;;;36.15;;
54683;SDS011;40582;53.100;6.686;2022-10-18T03:19:32;163.18;;;41.42;;
54683;SDS011;40582;53.100;6.686;2022-10-18T03:21:58;72.90;;;34.00;;
54683;SDS011;40582;53.100;6.686;2022-10-18T03:24:23;107.95;;;35.15;;
54683;SDS011;40582;53.100;6.686;2022-10-18T03:26:49;62.03;;;32.90;;
54683;SDS011;40582;53.100;6.686;2022-10-18T03:29:15;159.60;;;35.25;;
54683;SDS011;40582;53.100;6.686;2022-10-18T03:31:40;121.20;;;33.67;;
54683;SDS011;40582;53.100;6.686;2022-10-18T03:34:06;104.82;;;34.85;;
54683;SDS011;40582;53.100;6.686;2022-10-18T03:36:32;113.28;;;32.20;;
54683;SDS011;40582;53.100;6.686;2022-10-18T03:38:58;91.82;;;34.25;;
54683;SDS011;40582;53.100;6.686;2022-10-18T03:41:24;60.63;;;31.55;;
54683;SDS011;40582;53.100;6.686;2022-10-18T03:43:49;101.60;;;34.17;;
54683;SDS011;40582;53.100;6.686;2022-10-18T03:46:15;128.75;;;36.53;;
54683;SDS011;40582;53.100;6.686;2022-10-18T03:48:41;57.75;;;30.25;;
54683;SDS011;40582;53.100;6.686;2022-10-18T03:51:06;233.68;;;39.40;;
54683;SDS011;40582;53.100;6.686;2022-10-18T03:53:32;45.63;;;26.38;;
54683;SDS011;40582;53.100;6.686;2022-10-18T03:55:58;100.40;;;31.02;;
54683;SDS011;40582;53.100;6.686;2022-10-18T03:58:23;43.80;;;26.08;;
54683;SDS011;40582;53.100;6.686;2022-10-18T04:00:50;51.17;;;26.25;;
54683;SDS011;40582;53.100;6.686;2022-10-18T04:03:17;44.17;;;24.40;;
54683;SDS011;40582;53.100;6.686;2022-10-18T04:05:44;61.80;;;24.50;;
54683;SDS011;40582;53.100;6.686;2022-10-18T04:08:10;28.70;;;21.15;;
54683;SDS011;40582;53.100;6.686;2022-10-18T04:10:36;76.65;;;25.80;;
54683;SDS011;40582;53.100;6.686;2022-10-18T04:13:03;65.75;;;23.55;;
54683;SDS011;40582;53.100;6.686;2022-10-18T04:15:29;34.95;;;21.55;;
54683;SDS011;40582;53.100;6.686;2022-10-18T04:17:55;28.33;;;21.30;;
54683;SDS011;40582;53.100;6.686;2022-10-18T04:20:21;29.02;;;20.25;;
54683;SDS011;40582;53.100;6.686;2022-10-18T04:22:48;44.17;;;22.05;;
54683;SDS011;40582;53.100;6.686;2022-10-18T04:25:14;26.55;;;20.13;;
54683;SDS011;40582;53.100;6.686;2022-10-18T04:27:40;66.32;;;22.05;;
54683;SDS011;40582;53.100;6.686;2022-10-18T04:30:06;41.08;;;20.85;;
54683;SDS011;40582;53.100;6.686;2022-10-18T04:32:32;88.72;;;24.83;;
54683;SDS011;40582;53.100;6.686;2022-10-18T04:35:00;34.88;;;19.35;;
54683;SDS011;40582;53.100;6.686;2022-10-18T04:37:26;31.77;;;19.45;;
54683;SDS011;40582;53.100;6.686;2022-10-18T04:39:51;26.63;;;18.90;;
54683;SDS011;40582;53.100;6.686;2022-10-18T04:42:17;51.83;;;20.20;;
54683;SDS011;40582;53.100;6.686;2022-10-18T04:44:43;43.30;;;19.75;;
54683;SDS011;40582;53.100;6.686;2022-10-18T04:47:08;29.40;;;17.10;;
54683;SDS011;40582;53.100;6.686;2022-10-18T04:49:34;29.70;;;18.35;;
54683;SDS011;40582;53.100;6.686;2022-10-18T04:52:00;77.13;;;20.35;;
54683;SDS011;40582;53.100;6.686;2022-10-18T04:54:26;20.58;;;17.80;;
54683;SDS011;40582;53.100;6.686;2022-10-18T04:56:52;72.15;;;21.23;;
54683;SDS011;40582;53.100;6.686;2022-10-18T04:59:18;32.17;;;18.23;;
54683;SDS011;40582;53.100;6.686;2022-10-18T05:01:43;25.55;;;18.30;;
54683;SDS011;40582;53.100;6.686;2022-10-18T05:04:09;35.00;;;18.55;;
54683;SDS011;40582;53.100;6.686;2022-10-18T05:06:35;29.60;;;17.13;;
54683;SDS011;40582;53.100;6.686;2022-10-18T05:09:00;29.17;;;17.33;;
54683;SDS011;40582;53.100;6.686;2022-10-18T05:11:26;37.33;;;18.75;;
54683;SDS011;40582;53.100;6.686;2022-10-18T05:13:52;36.28;;;16.85;;
54683;SDS011;40582;53.100;6.686;2022-10-18T05:16:18;36.63;;;17.67;;
54683;SDS011;40582;53.100;6.686;2022-10-18T05:18:44;25.10;;;16.35;;
54683;SDS011;40582;53.100;6.686;2022-10-18T05:21:09;31.77;;;17.63;;
54683;SDS011;40582;53.100;6.686;2022-10-18T05:23:36;29.92;;;17.85;;
54683;SDS011;40582;53.100;6.686;2022-10-18T05:26:05;35.55;;;19.17;;
54683;SDS011;40582;53.100;6.686;2022-10-18T05:28:33;29.63;;;17.08;;
54683;SDS011;40582;53.100;6.686;2022-10-18T05:31:03;24.20;;;16.00;;
54683;SDS011;40582;53.100;6.686;2022-10-18T05:33:30;39.10;;;17.60;;
54683;SDS011;40582;53.100;6.686;2022-10-18T05:35:56;43.97;;;18.45;;
54683;SDS011;40582;53.100;6.686;2022-10-18T05:38:22;24.55;;;16.33;;
54683;SDS011;40582;53.100;6.686;2022-10-18T05:40:48;23.35;;;15.98;;
54683;SDS011;40582;53.100;6.686;2022-10-18T05:43:14;31.45;;;17.42;;
54683;SDS011;40582;53.100;6.686;2022-10-18T05:45:46;30.33;;;16.42;;
54683;SDS011;40582;53.100;6.686;2022-10-18T05:48:12;24.42;;;16.65;;
54683;SDS011;40582;53.100;6.686;2022-10-18T05:50:38;43.85;;;16.85;;
54683;SDS011;40582;53.100;6.686;2022-10-18T05:53:04;32.47;;;16.55;;
54683;SDS011;40582;53.100;6.686;2022-10-18T05:55:29;67.88;;;17.13;;
54683;SDS011;40582;53.100;6.686;2022-10-18T05:57:55;63.10;;;16.42;;
54683;SDS011;40582;53.100;6.686;2022-10-18T06:00:21;24.23;;;15.70;;
54683;SDS011;40582;53.100;6.686;2022-10-18T06:02:46;28.38;;;14.85;;
54683;SDS011;40582;53.100;6.686;2022-10-18T06:05:12;39.63;;;15.77;;
54683;SDS011;40582;53.100;6.686;2022-10-18T06:07:38;30.90;;;14.85;;
54683;SDS011;40582;53.100;6.686;2022-10-18T06:10:03;41.53;;;14.85;;
54683;SDS011;40582;53.100;6.686;2022-10-18T06:12:29;25.02;;;14.23;;
54683;SDS011;40582;53.100;6.686;2022-10-18T06:14:55;36.53;;;15.82;;
54683;SDS011;40582;53.100;6.686;2022-10-18T06:17:21;31.23;;;15.05;;
54683;SDS011;40582;53.100;6.686;2022-10-18T06:19:46;75.05;;;17.77;;
54683;SDS011;40582;53.100;6.686;2022-10-18T06:22:12;19.05;;;13.82;;
54683;SDS011;40582;53.100;6.686;2022-10-18T06:24:38;27.40;;;15.35;;
54683;SDS011;40582;53.100;6.686;2022-10-18T06:27:03;21.83;;;15.52;;
54683;SDS011;40582;53.100;6.686;2022-10-18T06:29:35;36.20;;;15.65;;
54683;SDS011;40582;53.100;6.686;2022-10-18T06:32:02;42.33;;;15.23;;
54683;SDS011;40582;53.100;6.686;2022-10-18T06:34:28;28.42;;;15.30;;
54683;SDS011;40582;53.100;6.686;2022-10-18T06:36:54;27.58;;;13.23;;
54683;SDS011;40582;53.100;6.686;2022-10-18T06:39:20;23.80;;;12.90;;
54683;SDS011;40582;53.100;6.686;2022-10-18T06:41:46;52.25;;;14.20;;
54683;SDS011;40582;53.100;6.686;2022-10-18T06:44:11;25.27;;;12.60;;
54683;SDS011;40582;53.100;6.686;2022-10-18T06:46:41;16.33;;;11.40;;
54683;SDS011;40582;53.100;6.686;2022-10-18T06:49:08;18.95;;;12.25;;
54683;SDS011;40582;53.100;6.686;2022-10-18T06:51:35;32.08;;;12.50;;
54683;SDS011;40582;53.100;6.686;2022-10-18T06:54:00;22.10;;;13.43;;
54683;SDS011;40582;53.100;6.686;2022-10-18T06:56:26;30.92;;;13.88;;
54683;SDS011;40582;53.100;6.686;2022-10-18T06:58:52;16.20;;;12.52;;
54683;SDS011;40582;53.100;6.686;2022-10-18T07:01:18;51.08;;;11.15;;
54683;SDS011;40582;53.100;6.686;2022-10-18T07:03:44;15.75;;;11.40;;
54683;SDS011;40582;53.100;6.686;2022-10-18T07:06:12;16.65;;;10.88;;
54683;SDS011;40582;53.100;6.686;2022-10-18T07:08:38;35.65;;;11.13;;
54683;SDS011;40582;53.100;6.686;2022-10-18T07:11:05;14.20;;;10.13;;
54683;SDS011;40582;53.100;6.686;2022-10-18T07:13:31;55.58;;;11.75;;
54683;SDS011;40582;53.100;6.686;2022-10-18T07:15:58;24.40;;;9.52;;
54683;SDS011;40582;53.100;6.686;2022-10-18T07:18:25;32.80;;;9.50;;
54683;SDS011;40582;53.100;6.686;2022-10-18T07:20:51;38.42;;;9.35;;
54683;SDS011;40582;53.100;6.686;2022-10-18T07:23:16;21.33;;;8.98;;
54683;SDS011;40582;53.100;6.686;2022-10-18T07:25:45;37.63;;;9.27;;
54683;SDS011;40582;53.100;6.686;2022-10-18T07:28:11;27.10;;;9.02;;
54683;SDS011;40582;53.100;6.686;2022-10-18T07:30:37;10.43;;;9.32;;
54683;SDS011;40582;53.100;6.686;2022-10-18T07:33:03;39.95;;;10.20;;
54683;SDS011;40582;53.100;6.686;2022-10-18T07:35:28;16.98;;;9.68;;
54683;SDS011;40582;53.100;6.686;2022-10-18T07:37:54;17.52;;;10.60;;
54683;SDS011;40582;53.100;6.686;2022-10-18T07:40:20;12.02;;;10.32;;
54683;SDS011;40582;53.100;6.686;2022-10-18T07:42:45;23.02;;;11.23;;
54683;SDS011;40582;53.100;6.686;2022-10-18T07:45:11;30.67;;;10.60;;
54683;SDS011;40582;53.100;6.686;2022-10-18T07:47:37;23.60;;;10.70;;
54683;SDS011;40582;53.100;6.686;2022-10-18T07:50:03;14.05;;;10.10;;
54683;SDS011;40582;53.100;6.686;2022-10-18T07:52:29;21.80;;;10.57;;
54683;SDS011;40582;53.100;6.686;2022-10-18T07:54:55;22.63;;;11.75;;
54683;SDS011;40582;53.100;6.686;2022-10-18T07:57:21;26.67;;;10.75;;
54683;SDS011;40582;53.100;6.686;2022-10-18T07:59:47;27.27;;;10.40;;
54683;SDS011;40582;53.100;6.686;2022-10-18T08:02:16;18.98;;;10.50;;
54683;SDS011;40582;53.100;6.686;2022-10-18T08:04:42;18.92;;;10.77;;
54683;SDS011;40582;53.100;6.686;2022-10-18T08:07:07;14.68;;;10.60;;
54683;SDS011;40582;53.100;6.686;2022-10-18T08:09:33;15.90;;;11.63;;
54683;SDS011;40582;53.100;6.686;2022-10-18T08:11:59;19.48;;;11.88;;
54683;SDS011;40582;53.100;6.686;2022-10-18T08:14:24;18.58;;;10.70;;
54683;SDS011;40582;53.100;6.686;2022-10-18T08:16:50;14.07;;;10.32;;
54683;SDS011;40582;53.100;6.686;2022-10-18T08:19:15;13.70;;;10.15;;
54683;SDS011;40582;53.100;6.686;2022-10-18T08:21:41;13.32;;;9.40;;
54683;SDS011;40582;53.100;6.686;2022-10-18T08:24:07;13.38;;;8.35;;
54683;SDS011;40582;53.100;6.686;2022-10-18T08:26:32;18.23;;;7.47;;
54683;SDS011;40582;53.100;6.686;2022-10-18T08:28:58;13.60;;;7.97;;
54683;SDS011;40582;53.100;6.686;2022-10-18T08:31:24;17.35;;;8.65;;
54683;SDS011;40582;53.100;6.686;2022-10-18T08:33:50;15.57;;;8.85;;
54683;SDS011;40582;53.100;6.686;2022-10-18T08:36:16;16.83;;;8.85;;
54683;SDS011;40582;53.100;6.686;2022-10-18T08:38:42;15.18;;;7.90;;
54683;SDS011;40582;53.100;6.686;2022-10-18T08:44:04;12.77;;;7.47;;
54683;SDS011;40582;53.100;6.686;2022-10-18T08:46:43;14.40;;;8.15;;
54683;SDS011;40582;53.100;6.686;2022-10-18T08:49:13;16.40;;;8.27;;
54683;SDS011;40582;53.100;6.686;2022-10-18T08:51:53;22.08;;;8.57;;
54683;SDS011;40582;53.100;6.686;2022-10-18T08:54:43;17.08;;;8.50;;
54683;SDS011;40582;53.100;6.686;2022-10-18T08:57:17;28.80;;;8.68;;
54683;SDS011;40582;53.100;6.686;2022-10-18T08:59:44;15.77;;;8.57;;
54683;SDS011;40582;53.100;6.686;2022-10-18T09:02:20;19.60;;;8.75;;
54683;SDS011;40582;53.100;6.686;2022-10-18T09:05:03;21.48;;;8.40;;
54683;SDS011;40582;53.100;6.686;2022-10-18T09:16:13;32.70;;;8.75;;
54683;SDS011;40582;53.100;6.686;2022-10-18T09:21:53;29.17;;;10.07;;
54683;SDS011;40582;53.100;6.686;2022-10-18T09:27:12;26.38;;;9.57;;
54683;SDS011;40582;53.100;6.686;2022-10-18T09:35:24;33.13;;;10.63;;
54683;SDS011;40582;53.100;6.686;2022-10-18T09:38:04;23.27;;;9.55;;
54683;SDS011;40582;53.100;6.686;2022-10-18T09:40:37;25.38;;;9.88;;
54683;SDS011;40582;53.100;6.686;2022-10-18T09:43:21;29.38;;;6.93;;
54683;SDS011;40582;53.100;6.686;2022-10-18T09:45:51;33.63;;;6.32;;
54683;SDS011;40582;53.100;6.686;2022-10-18T09:48:22;30.30;;;5.68;;
54683;SDS011;40582;53.100;6.686;2022-10-18T09:51:02;25.05;;;5.05;;
54683;SDS011;40582;53.100;6.686;2022-10-18T09:56:29;20.48;;;4.80;;
54683;SDS011;40582;53.100;6.686;2022-10-18T09:59:02;24.85;;;4.97;;
54683;SDS011;40582;53.100;6.686;2022-10-18T10:01:28;22.00;;;4.85;;
54683;SDS011;40582;53.100;6.686;2022-10-18T10:03:55;29.08;;;5.43;;
54683;SDS011;40582;53.100;6.686;2022-10-18T10:06:26;26.75;;;5.38;;
54683;SDS011;40582;53.100;6.686;2022-10-18T10:08:57;25.67;;;4.78;;
54683;SDS011;40582;53.100;6.686;2022-10-18T10:14:12;20.42;;;4.93;;
54683;SDS011;40582;53.100;6.686;2022-10-18T10:16:47;24.50;;;4.55;;
54683;SDS011;40582;53.100;6.686;2022-10-18T10:19:20;24.42;;;5.03;;
54683;SDS011;40582;53.100;6.686;2022-10-18T10:21:47;21.88;;;3.85;;
54683;SDS011;40582;53.100;6.686;2022-10-18T10:24:17;24.88;;;3.50;;
54683;SDS011;40582;53.100;6.686;2022-10-18T10:26:47;25.73;;;3.67;;
54683;SDS011;40582;53.100;6.686;2022-10-18T10:32:11;16.67;;;3.42;;
54683;SDS011;40582;53.100;6.686;2022-10-18T10:34:38;25.10;;;3.72;;
54683;SDS011;40582;53.100;6.686;2022-10-18T10:37:20;28.42;;;5.50;;
54683;SDS011;40582;53.100;6.686;2022-10-18T10:42:51;15.23;;;3.55;;
54683;SDS011;40582;53.100;6.686;2022-10-18T10:45:24;18.85;;;3.80;;
54683;SDS011;40582;53.100;6.686;2022-10-18T10:47:52;23.95;;;4.13;;
54683;SDS011;40582;53.100;6.686;2022-10-18T10:50:26;13.48;;;3.38;;
54683;SDS011;40582;53.100;6.686;2022-10-18T10:52:53;25.23;;;4.25;;
54683;SDS011;40582;53.100;6.686;2022-10-18T10:55:23;17.63;;;3.45;;
54683;SDS011;40582;53.100;6.686;2022-10-18T10:57:52;22.27;;;3.45;;
54683;SDS011;40582;53.100;6.686;2022-10-18T11:03:05;16.50;;;3.03;;
54683;SDS011;40582;53.100;6.686;2022-10-18T11:05:43;15.23;;;2.80;;
54683;SDS011;40582;53.100;6.686;2022-10-18T11:08:23;21.55;;;2.80;;
54683;SDS011;40582;53.100;6.686;2022-10-18T11:16:15;13.90;;;2.88;;
54683;SDS011;40582;53.100;6.686;2022-10-18T11:18:56;14.15;;;2.50;;
54683;SDS011;40582;53.100;6.686;2022-10-18T11:21:27;18.63;;;3.15;;
54683;SDS011;40582;53.100;6.686;2022-10-18T11:23:55;19.40;;;2.60;;
54683;SDS011;40582;53.100;6.686;2022-10-18T11:26:35;18.02;;;2.80;;
54683;SDS011;40582;53.100;6.686;2022-10-18T11:42:50;11.13;;;2.38;;
54683;SDS011;40582;53.100;6.686;2022-10-18T11:51:08;16.15;;;2.83;;
54683;SDS011;40582;53.100;6.686;2022-10-18T11:59:27;22.52;;;3.30;;
54683;SDS011;40582;53.100;6.686;2022-10-18T12:04:59;12.10;;;2.72;;
54683;SDS011;40582;53.100;6.686;2022-10-18T12:07:30;17.42;;;3.17;;
54683;SDS011;40582;53.100;6.686;2022-10-18T12:10:00;10.00;;;2.35;;
54683;SDS011;40582;53.100;6.686;2022-10-18T12:12:51;13.77;;;2.58;;
54683;SDS011;40582;53.100;6.686;2022-10-18T12:15:21;22.75;;;3.22;;
54683;SDS011;40582;53.100;6.686;2022-10-18T12:17:51;14.23;;;2.60;;
54683;SDS011;40582;53.100;6.686;2022-10-18T12:25:34;18.65;;;2.72;;
54683;SDS011;40582;53.100;6.686;2022-10-18T12:33:34;13.70;;;2.95;;
54683;SDS011;40582;53.100;6.686;2022-10-18T12:38:32;12.52;;;2.60;;
54683;SDS011;40582;53.100;6.686;2022-10-18T12:41:01;24.40;;;2.75;;
54683;SDS011;40582;53.100;6.686;2022-10-18T12:43:29;16.83;;;2.42;;
54683;SDS011;40582;53.100;6.686;2022-10-18T12:46:01;18.58;;;2.72;;
54683;SDS011;40582;53.100;6.686;2022-10-18T12:48:36;17.77;;;2.67;;
54683;SDS011;40582;53.100;6.686;2022-10-18T12:51:17;14.65;;;2.65;;
54683;SDS011;40582;53.100;6.686;2022-10-18T12:53:50;18.52;;;3.47;;
54683;SDS011;40582;53.100;6.686;2022-10-18T12:59:38;17.80;;;2.63;;
54683;SDS011;40582;53.100;6.686;2022-10-18T13:09:42;14.63;;;2.35;;
54683;SDS011;40582;53.100;6.686;2022-10-18T13:15:43;12.55;;;2.30;;
54683;SDS011;40582;53.100;6.686;2022-10-18T13:18:22;17.20;;;2.80;;
54683;SDS011;40582;53.100;6.686;2022-10-18T13:21:00;15.93;;;2.92;;
54683;SDS011;40582;53.100;6.686;2022-10-18T13:23:54;18.05;;;2.70;;
54683;SDS011;40582;53.100;6.686;2022-10-18T13:31:55;20.50;;;3.00;;
54683;SDS011;40582;53.100;6.686;2022-10-18T13:34:34;17.05;;;3.22;;
54683;SDS011;40582;53.100;6.686;2022-10-18T13:39:34;14.00;;;2.92;;
54683;SDS011;40582;53.100;6.686;2022-10-18T13:44:31;11.93;;;2.22;;
54683;SDS011;40582;53.100;6.686;2022-10-18T13:57:34;13.73;;;2.75;;
54683;SDS011;40582;53.100;6.686;2022-10-18T14:11:05;13.13;;;2.95;;
54683;SDS011;40582;53.100;6.686;2022-10-18T14:13:47;9.65;;;2.67;;
54683;SDS011;40582;53.100;6.686;2022-10-18T14:18:48;16.30;;;3.08;;
54683;SDS011;40582;53.100;6.686;2022-10-18T14:21:21;17.02;;;2.60;;
54683;SDS011;40582;53.100;6.686;2022-10-18T14:23:53;16.70;;;2.40;;
54683;SDS011;40582;53.100;6.686;2022-10-18T14:26:19;17.10;;;3.08;;
54683;SDS011;40582;53.100;6.686;2022-10-18T14:29:00;14.80;;;2.90;;
54683;SDS011;40582;53.100;6.686;2022-10-18T14:31:28;15.73;;;2.85;;
54683;SDS011;40582;53.100;6.686;2022-10-18T14:33:54;20.77;;;2.95;;
54683;SDS011;40582;53.100;6.686;2022-10-18T14:36:22;17.08;;;3.13;;
54683;SDS011;40582;53.100;6.686;2022-10-18T14:38:50;16.20;;;2.35;;
54683;SDS011;40582;53.100;6.686;2022-10-18T14:41:23;16.63;;;2.70;;
54683;SDS011;40582;53.100;6.686;2022-10-18T14:43:51;20.65;;;3.20;;
54683;SDS011;40582;53.100;6.686;2022-10-18T14:46:41;13.10;;;2.42;;
54683;SDS011;40582;53.100;6.686;2022-10-18T14:49:12;18.63;;;2.85;;
54683;SDS011;40582;53.100;6.686;2022-10-18T14:51:39;19.85;;;2.60;;
54683;SDS011;40582;53.100;6.686;2022-10-18T14:54:08;18.85;;;2.65;;
54683;SDS011;40582;53.100;6.686;2022-10-18T14:56:39;14.25;;;2.45;;
54683;SDS011;40582;53.100;6.686;2022-10-18T14:59:26;16.83;;;2.83;;
54683;SDS011;40582;53.100;6.686;2022-10-18T15:01:55;23.33;;;2.78;;
54683;SDS011;40582;53.100;6.686;2022-10-18T15:04:27;19.23;;;2.83;;
54683;SDS011;40582;53.100;6.686;2022-10-18T15:06:58;13.85;;;3.03;;
54683;SDS011;40582;53.100;6.686;2022-10-18T15:09:31;15.80;;;2.97;;
54683;SDS011;40582;53.100;6.686;2022-10-18T15:11:59;20.88;;;2.55;;
54683;SDS011;40582;53.100;6.686;2022-10-18T15:14:26;23.30;;;2.95;;
54683;SDS011;40582;53.100;6.686;2022-10-18T15:17:18;14.88;;;2.53;;
54683;SDS011;40582;53.100;6.686;2022-10-18T15:19:53;10.90;;;3.05;;
54683;SDS011;40582;53.100;6.686;2022-10-18T15:22:23;19.48;;;2.55;;
54683;SDS011;40582;53.100;6.686;2022-10-18T15:25:14;17.70;;;2.83;;
54683;SDS011;40582;53.100;6.686;2022-10-18T15:27:42;17.10;;;3.25;;
54683;SDS011;40582;53.100;6.686;2022-10-18T15:35:18;17.60;;;3.15;;
54683;SDS011;40582;53.100;6.686;2022-10-18T15:37:52;17.48;;;3.05;;
54683;SDS011;40582;53.100;6.686;2022-10-18T15:42:49;13.93;;;3.38;;
54683;SDS011;40582;53.100;6.686;2022-10-18T15:50:39;12.95;;;2.50;;
54683;SDS011;40582;53.100;6.686;2022-10-18T15:56:03;17.30;;;2.72;;
54683;SDS011;40582;53.100;6.686;2022-10-18T15:58:37;19.38;;;2.83;;
54683;SDS011;40582;53.100;6.686;2022-10-18T16:03:56;16.45;;;4.10;;
54683;SDS011;40582;53.100;6.686;2022-10-18T16:06:22;23.13;;;4.53;;
54683;SDS011;40582;53.100;6.686;2022-10-18T16:08:49;30.00;;;10.65;;
54683;SDS011;40582;53.100;6.686;2022-10-18T16:11:17;14.73;;;3.17;;
54683;SDS011;40582;53.100;6.686;2022-10-18T16:13:44;16.67;;;2.75;;
54683;SDS011;40582;53.100;6.686;2022-10-18T16:16:15;15.07;;;2.42;;
54683;SDS011;40582;53.100;6.686;2022-10-18T16:18:46;12.13;;;2.40;;
54683;SDS011;40582;53.100;6.686;2022-10-18T16:21:14;20.30;;;3.00;;
54683;SDS011;40582;53.100;6.686;2022-10-18T16:24:00;20.33;;;3.35;;
54683;SDS011;40582;53.100;6.686;2022-10-18T16:26:29;10.95;;;2.30;;
54683;SDS011;40582;53.100;6.686;2022-10-18T16:28:55;19.30;;;3.00;;
54683;SDS011;40582;53.100;6.686;2022-10-18T16:31:23;11.63;;;2.25;;
54683;SDS011;40582;53.100;6.686;2022-10-18T16:33:51;13.25;;;2.88;;
54683;SDS011;40582;53.100;6.686;2022-10-18T16:36:22;12.52;;;2.67;;
54683;SDS011;40582;53.100;6.686;2022-10-18T16:38:50;11.18;;;2.22;;
54683;SDS011;40582;53.100;6.686;2022-10-18T16:41:15;8.73;;;2.20;;
54683;SDS011;40582;53.100;6.686;2022-10-18T16:43:42;11.73;;;2.50;;
54683;SDS011;40582;53.100;6.686;2022-10-18T16:46:09;16.05;;;2.92;;
54683;SDS011;40582;53.100;6.686;2022-10-18T16:48:40;8.88;;;2.20;;
54683;SDS011;40582;53.100;6.686;2022-10-18T16:51:07;10.15;;;2.42;;
54683;SDS011;40582;53.100;6.686;2022-10-18T16:53:34;12.43;;;1.80;;
54683;SDS011;40582;53.100;6.686;2022-10-18T16:56:01;12.25;;;2.25;;
54683;SDS011;40582;53.100;6.686;2022-10-18T16:58:29;13.07;;;2.10;;
54683;SDS011;40582;53.100;6.686;2022-10-18T17:00:56;10.63;;;1.98;;
54683;SDS011;40582;53.100;6.686;2022-10-18T17:03:23;10.68;;;2.25;;
54683;SDS011;40582;53.100;6.686;2022-10-18T17:05:49;11.02;;;2.60;;
54683;SDS011;40582;53.100;6.686;2022-10-18T17:08:20;11.30;;;1.98;;
54683;SDS011;40582;53.100;6.686;2022-10-18T17:10:48;7.57;;;1.95;;
54683;SDS011;40582;53.100;6.686;2022-10-18T17:13:17;11.77;;;1.70;;
54683;SDS011;40582;53.100;6.686;2022-10-18T17:15:43;10.48;;;1.70;;
54683;SDS011;40582;53.100;6.686;2022-10-18T17:18:14;10.48;;;2.17;;
54683;SDS011;40582;53.100;6.686;2022-10-18T17:20:42;13.63;;;1.92;;
54683;SDS011;40582;53.100;6.686;2022-10-18T17:23:08;20.67;;;2.72;;
54683;SDS011;40582;53.100;6.686;2022-10-18T17:25:38;8.45;;;1.90;;
54683;SDS011;40582;53.100;6.686;2022-10-18T17:28:09;7.93;;;1.98;;
54683;SDS011;40582;53.100;6.686;2022-10-18T17:30:38;11.00;;;2.38;;
54683;SDS011;40582;53.100;6.686;2022-10-18T17:33:05;8.75;;;2.00;;
54683;SDS011;40582;53.100;6.686;2022-10-18T17:35:31;7.75;;;1.52;;
54683;SDS011;40582;53.100;6.686;2022-10-18T17:37:57;7.75;;;1.42;;
54683;SDS011;40582;53.100;6.686;2022-10-18T17:40:22;8.27;;;2.53;;
54683;SDS011;40582;53.100;6.686;2022-10-18T17:42:51;11.23;;;1.73;;